createdAt,value
2022-08-09T00:00:06.496Z,94753.13
2022-08-09T00:02:34.991Z,94760.03
2022-08-09T00:06:16.347Z,94761.63
2022-08-09T00:07:48.888Z,94763.22
2022-08-09T00:10:21.542Z,94750.94
2022-08-09T00:12:52.511Z,94759.22
2022-08-09T00:15:26.752Z,94765.66
2022-08-09T00:18:11.891Z,94752.00
2022-08-09T00:20:42.638Z,94755.44
2022-08-09T00:23:57.235Z,94754.09
2022-08-09T00:26:06.099Z,94759.69
2022-08-09T00:28:34.518Z,94761.81
2022-08-09T00:31:30.649Z,94755.16
2022-08-09T00:33:52.485Z,94766.63
2022-08-09T00:36:19.945Z,94758.88
2022-08-09T00:38:46.708Z,94757.28
2022-08-09T00:44:11.420Z,94763.16
2022-08-09T00:44:11.596Z,94765.81
2022-08-09T00:46:57.005Z,94766.31
2022-08-09T00:49:31.273Z,94769.28
2022-08-09T00:52:05.131Z,94775.44
2022-08-09T00:54:36.167Z,94767.91
2022-08-09T00:57:08.799Z,94774.31
2022-08-09T00:59:41.694Z,94781.75
2022-08-09T01:02:21.338Z,94779.59
2022-08-09T01:04:58.212Z,94787.59
2022-08-09T01:08:16.239Z,94787.59
2022-08-09T01:10:54.673Z,94783.59
2022-08-09T01:13:59.140Z,94790.56
2022-08-09T01:16:30.415Z,94797.50
2022-08-09T01:19:02.606Z,94781.19
2022-08-09T01:21:53.571Z,94791.88
2022-08-09T01:24:29.556Z,94786.22
2022-08-09T01:27:08.846Z,94782.22
2022-08-09T01:29:55.637Z,94784.34
2022-08-09T01:32:31.947Z,94782.75
2022-08-09T01:35:06.984Z,94771.53
2022-08-09T01:38:07.701Z,94755.53
2022-08-09T01:40:36.965Z,94752.38
2022-08-09T01:43:03.645Z,94745.22
2022-08-09T01:45:31.034Z,94734.25
2022-08-09T01:47:57.728Z,94729.72
2022-08-09T01:50:29.897Z,94729.72
2022-08-09T01:53:19.941Z,94732.69
2022-08-09T01:55:48.298Z,94732.44
2022-08-09T01:58:15.258Z,94737.50
2022-08-09T02:00:43.200Z,94729.75
2022-08-09T02:03:13.948Z,94725.75
2022-08-09T02:06:03.848Z,94722.56
2022-08-09T02:08:36.004Z,94722.56
2022-08-09T02:11:17.201Z,94718.81
2022-08-09T02:13:44.207Z,94721.44
2022-08-09T02:16:38.645Z,94721.44
2022-08-09T02:19:20.511Z,94727.31
2022-08-09T02:21:55.765Z,94721.97
2022-08-09T02:24:26.206Z,94731.34
2022-08-09T02:26:54.003Z,94727.31
2022-08-09T02:29:23.613Z,94724.66
2022-08-09T02:31:50.456Z,94736.91
2022-08-09T02:34:40.450Z,94738.28
2022-08-09T02:37:12.171Z,94738.50
2022-08-09T02:39:42.653Z,94745.44
2022-08-09T02:42:18.011Z,94747.34
2022-08-09T02:44:50.505Z,94757.16
2022-08-09T02:47:17.594Z,94763.53
2022-08-09T02:50:14.627Z,94759.25
2022-08-09T02:52:49.971Z,94761.34
2022-08-09T02:55:23.435Z,94744.81
2022-08-09T02:58:35.629Z,94749.34
2022-08-09T03:00:58.474Z,94751.72
2022-08-09T03:03:37.214Z,94754.94
2022-08-09T03:06:14.968Z,94746.91
2022-08-09T03:08:45.300Z,94758.13
2022-08-09T03:12:06.395Z,94762.91
2022-08-09T03:14:02.989Z,94755.06
2022-08-09T03:16:29.630Z,94760.16
2022-08-09T03:18:56.264Z,94751.88
2022-08-09T03:21:28.368Z,94758.31
2022-08-09T03:24:04.789Z,94757.03
2022-08-09T03:26:32.236Z,94755.94
2022-08-09T03:29:01.283Z,94755.88
2022-08-09T03:31:42.609Z,94759.63
2022-08-09T03:34:23.252Z,94766.47
2022-08-09T03:36:59.463Z,94758.97
2022-08-09T03:39:37.935Z,94762.19
2022-08-09T03:42:06.806Z,94760.31
2022-08-09T03:44:34.044Z,94752.59
2022-08-09T03:47:00.693Z,94760.03
2022-08-09T03:49:32.891Z,94767.00
2022-08-09T03:52:03.539Z,94770.72
2022-08-09T03:54:38.465Z,94772.31
2022-08-09T03:57:18.627Z,94777.66
2022-08-09T03:59:54.676Z,94770.19
2022-08-09T04:02:28.252Z,94767.75
2022-08-09T04:05:00.567Z,94766.41
2022-08-09T04:07:47.657Z,94768.53
2022-08-09T04:10:18.431Z,94775.00
2022-08-09T04:12:51.471Z,94771.28
2022-08-09T04:15:39.106Z,94776.78
2022-08-09T04:18:06.145Z,94771.78
2022-08-09T04:20:33.378Z,94771.31
2022-08-09T04:23:00.623Z,94772.19
2022-08-09T04:25:28.790Z,94775.94
2022-08-09T04:28:02.439Z,94769.56
2022-08-09T04:30:30.761Z,94764.28
2022-08-09T04:32:57.488Z,94772.84
2022-08-09T04:35:24.108Z,94780.34
2022-08-09T04:37:50.818Z,94779.03
2022-08-09T04:40:29.117Z,94779.84
2022-08-09T04:43:03.893Z,94785.22
2022-08-09T04:45:36.083Z,94782.56
2022-08-09T04:48:20.101Z,94792.75
2022-08-09T04:50:46.719Z,94790.59
2022-08-09T04:53:16.721Z,94792.22
2022-08-09T04:55:43.908Z,94793.28
2022-08-09T04:58:24.256Z,94796.19
2022-08-09T05:00:52.279Z,94788.97
2022-08-09T05:03:40.878Z,94794.31
2022-08-09T05:06:08.291Z,94793.78
2022-08-09T05:08:35.201Z,94791.38
2022-08-09T05:11:02.576Z,94796.72
2022-08-09T05:13:33.268Z,94794.81
2022-08-09T05:16:00.582Z,94796.94
2022-08-09T05:18:38.647Z,94801.22
2022-08-09T05:21:22.928Z,94800.13
2022-08-09T05:24:00.941Z,94803.31
2022-08-09T05:26:45.336Z,94801.16
2022-08-09T05:29:17.490Z,94801.13
2022-08-09T05:31:47.403Z,94814.53
2022-08-09T05:34:17.680Z,94818.03
2022-08-09T05:36:47.141Z,94816.66
2022-08-09T05:39:28.972Z,94819.81
2022-08-09T05:42:01.617Z,94820.38
2022-08-09T05:44:32.861Z,94817.94
2022-08-09T05:47:01.201Z,94811.22
2022-08-09T05:50:30.833Z,94817.13
2022-08-09T05:52:18.413Z,94809.63
2022-08-09T05:54:46.323Z,94811.69
2022-08-09T05:57:17.598Z,94807.16
2022-08-09T05:59:46.087Z,94809.03
2022-08-09T06:02:17.047Z,94810.63
2022-08-09T06:04:46.032Z,94814.59
2022-08-09T06:07:21.702Z,94813.25
2022-08-09T06:09:54.979Z,94808.94
2022-08-09T06:12:28.568Z,94810.56
2022-08-09T06:14:55.275Z,94807.31
2022-08-09T06:17:27.907Z,94804.09
2022-08-09T06:20:07.058Z,94811.03
2022-08-09T06:22:34.828Z,94808.88
2022-08-09T06:25:01.707Z,94812.09
2022-08-09T06:27:42.624Z,94805.66
2022-08-09T06:30:16.889Z,94811.56
2022-08-09T06:32:59.006Z,94812.34
2022-08-09T06:35:56.002Z,94811.78
2022-08-09T06:38:13.385Z,94817.94
2022-08-09T06:40:42.692Z,94818.72
2022-08-09T06:43:10.487Z,94815.78
2022-08-09T06:46:05.962Z,94808.81
2022-08-09T06:48:30.106Z,94812.03
2022-08-09T06:50:58.383Z,94808.25
2022-08-09T06:53:25.047Z,94810.94
2022-08-09T06:55:52.396Z,94809.06
2022-08-09T07:00:46.776Z,94806.09
2022-08-09T07:01:06.270Z,94800.75
2022-08-09T07:03:39.791Z,94805.03
2022-08-09T07:06:20.012Z,94806.34
2022-08-09T07:08:49.551Z,94799.41
2022-08-09T07:11:23.414Z,94794.03
2022-08-09T07:14:05.155Z,94805.03
2022-08-09T07:16:41.614Z,94799.66
2022-08-09T07:19:15.175Z,94805.81
2022-08-09T07:21:55.900Z,94800.19
2022-08-09T07:24:32.096Z,94801.28
2022-08-09T07:27:10.846Z,94790.56
2022-08-09T07:29:56.972Z,94799.09
2022-08-09T07:32:33.293Z,94804.47
2022-08-09T07:35:11.652Z,94806.06
2022-08-09T07:37:44.497Z,94804.47
2022-08-09T07:40:16.996Z,94805.28
2022-08-09T07:43:03.101Z,94803.66
2022-08-09T07:45:40.323Z,94801.28
2022-08-09T07:48:29.590Z,94802.88
2022-08-09T07:51:10.051Z,94802.88
2022-08-09T07:54:05.140Z,94803.66
2022-08-09T07:56:30.837Z,94799.66
2022-08-09T07:58:59.225Z,94799.66
2022-08-09T08:01:34.072Z,94805.03
2022-08-09T08:04:02.043Z,94798.84
2022-08-09T08:06:31.929Z,94796.44
2022-08-09T08:09:03.386Z,94794.84
2022-08-09T08:12:24.576Z,94795.63
2022-08-09T08:14:17.624Z,94786.81
2022-08-09T08:17:00.937Z,94796.44
2022-08-09T08:19:33.401Z,94782.50
2022-08-09T08:22:00.192Z,94783.31
2022-08-09T08:24:35.145Z,94779.03
2022-08-09T08:27:17.297Z,94776.34
2022-08-09T08:29:48.549Z,94781.72
2022-08-09T08:32:18.865Z,94770.19
2022-08-09T08:34:51.981Z,94777.13
2022-08-09T08:37:21.713Z,94768.59
2022-08-09T08:39:51.759Z,94776.63
2022-08-09T08:42:18.486Z,94768.59
2022-08-09T08:44:57.565Z,94767.00
2022-08-09T08:47:28.423Z,94763.78
2022-08-09T08:49:59.333Z,94766.19
2022-08-09T08:52:58.086Z,94759.25
2022-08-09T08:55:18.938Z,94767.00
2022-08-09T08:57:57.073Z,94763.78
2022-08-09T09:00:30.031Z,94758.44
2022-08-09T09:03:12.271Z,94754.66
2022-08-09T09:06:00.835Z,94746.13
2022-08-09T09:08:40.318Z,94749.31
2022-08-09T09:11:07.909Z,94741.56
2022-08-09T09:13:54.814Z,94746.13
2022-08-09T09:16:30.225Z,94739.94
2022-08-09T09:19:29.199Z,94733.78
2022-08-09T09:21:58.060Z,94739.94
2022-08-09T09:24:29.159Z,94735.41
2022-08-09T09:26:57.303Z,94731.13
2022-08-09T09:30:13.870Z,94732.19
2022-08-09T09:32:35.131Z,94726.84
2022-08-09T09:35:02.111Z,94730.03
2022-08-09T09:37:32.077Z,94726.03
2022-08-09T09:39:59.940Z,94730.03
2022-08-09T09:42:29.731Z,94723.09
2022-08-09T09:44:59.177Z,94717.72
2022-08-09T09:47:26.503Z,94720.41
2022-08-09T09:50:15.258Z,94707.00
2022-08-09T09:52:54.888Z,94711.78
2022-08-09T09:55:29.179Z,94714.47
2022-08-09T09:58:17.405Z,94702.72
2022-08-09T10:00:58.886Z,94712.38
2022-08-09T10:03:44.265Z,94700.63
2022-08-09T10:06:12.764Z,94705.97
2022-08-09T10:08:54.632Z,94712.41
2022-08-09T10:11:59.624Z,94712.13
2022-08-09T10:14:30.438Z,94708.13
2022-08-09T10:17:11.405Z,94708.13
2022-08-09T10:19:46.177Z,94696.84
2022-08-09T10:22:12.799Z,94702.22
2022-08-09T10:24:39.844Z,94702.22
2022-08-09T10:27:10.271Z,94697.94
2022-08-09T10:30:43.999Z,94705.97
2022-08-09T10:32:50.454Z,94704.38
2022-08-09T10:35:17.301Z,94702.22
2022-08-09T10:37:46.942Z,94688.81
2022-08-09T10:40:33.299Z,94703.00
2022-08-09T10:43:03.216Z,94689.34
2022-08-09T10:45:31.870Z,94696.84
2022-08-09T10:48:14.281Z,94681.88
2022-08-09T10:51:06.870Z,94692.56
2022-08-09T10:53:54.313Z,94688.31
2022-08-09T10:56:31.213Z,94685.06
2022-08-09T10:58:58.757Z,94693.66
2022-08-09T11:03:14.038Z,94695.78
2022-08-09T11:04:30.196Z,94695.78
2022-08-09T11:07:00.283Z,94701.16
2022-08-09T11:09:41.357Z,94697.44
2022-08-09T11:12:30.429Z,94695.78
2022-08-09T11:14:58.254Z,94693.13
2022-08-09T11:17:25.134Z,94694.19
2022-08-09T11:20:11.505Z,94701.97
2022-08-09T11:22:42.599Z,94696.34
2022-08-09T11:25:15.108Z,94688.31
2022-08-09T11:28:03.891Z,94682.94
2022-08-09T11:30:35.555Z,94692.56
2022-08-09T11:33:39.061Z,94678.66
2022-08-09T11:36:05.893Z,94677.59
2022-08-09T11:38:35.047Z,94682.13
2022-08-09T11:41:12.942Z,94676.00
2022-08-09T11:43:43.997Z,94685.91
2022-08-09T11:46:10.727Z,94682.94
2022-08-09T11:48:54.441Z,94682.94
2022-08-09T11:53:04.113Z,94676.00
2022-08-09T11:54:15.474Z,94675.41
2022-08-09T11:57:56.814Z,94669.25
2022-08-09T12:00:16.335Z,94667.94
2022-08-09T12:02:43.832Z,94676.00
2022-08-09T12:05:23.071Z,94669.00
2022-08-09T12:07:50.027Z,94673.59
2022-08-09T12:10:38.597Z,94668.50
2022-08-09T12:14:07.482Z,94669.00
2022-08-09T12:15:57.352Z,94666.63
2022-08-09T12:18:29.563Z,94671.16
2022-08-09T12:20:57.087Z,94660.97
2022-08-09T12:23:56.662Z,94651.88
2022-08-09T12:26:12.964Z,94651.88
2022-08-09T12:29:00.008Z,94645.44
2022-08-09T12:32:02.199Z,94640.84
2022-08-09T12:34:40.437Z,94645.66
2022-08-09T12:37:23.519Z,94633.13
2022-08-09T12:40:05.636Z,94639.50
2022-08-09T12:42:32.917Z,94634.72
2022-08-09T12:45:00.242Z,94633.34
2022-08-09T12:47:27.405Z,94630.97
2022-08-09T12:50:19.997Z,94617.56
2022-08-09T12:53:08.199Z,94609.00
2022-08-09T12:56:11.788Z,94610.59
2022-08-09T12:58:28.275Z,94614.06
2022-08-09T13:00:55.239Z,94600.97
2022-08-09T13:03:56.895Z,94597.22
2022-08-09T13:06:34.306Z,94591.03
2022-08-09T13:09:07.253Z,94591.84
2022-08-09T13:11:39.423Z,94597.22
2022-08-09T13:14:37.255Z,94590.78
2022-08-09T13:16:58.875Z,94595.81
2022-08-09T13:20:09.799Z,94595.56
2022-08-09T13:22:35.430Z,94594.47
2022-08-09T13:25:07.505Z,94601.69
2022-08-09T13:27:40.136Z,94604.94
2022-08-09T13:30:51.141Z,94607.34
2022-08-09T13:33:04.112Z,94605.75
2022-08-09T13:35:34.857Z,94603.06
2022-08-09T13:38:56.128Z,94603.06
2022-08-09T13:41:45.982Z,94604.16
2022-08-09T13:43:52.508Z,94605.75
2022-08-09T13:47:16.859Z,94604.16
2022-08-09T13:49:06.602Z,94608.44
2022-08-09T13:51:58.702Z,94598.50
2022-08-09T13:54:30.260Z,94609.72
2022-08-09T13:56:57.180Z,94598.50
2022-08-09T13:59:25.617Z,94596.63
2022-08-09T14:02:00.428Z,94595.03
2022-08-09T14:04:29.197Z,94594.22
2022-08-09T14:06:56.775Z,94598.81
2022-08-09T14:09:23.560Z,94604.09
2022-08-09T14:11:51.399Z,94595.81
2022-08-09T14:14:25.827Z,94595.81
2022-08-09T14:16:54.819Z,94589.69
2022-08-09T14:19:21.634Z,94595.81
2022-08-09T14:21:49.336Z,94589.69
2022-08-09T14:24:22.008Z,94594.47
2022-08-09T14:26:58.441Z,94587.00
2022-08-09T14:29:25.527Z,94581.59
2022-08-09T14:32:13.153Z,94579.47
2022-08-09T14:34:42.836Z,94583.75
2022-08-09T14:37:09.586Z,94581.59
2022-08-09T14:39:39.981Z,94572.22
2022-08-09T14:42:11.727Z,94576.22
2022-08-09T14:44:48.659Z,94568.47
2022-08-09T14:47:39.809Z,94563.91
2022-08-09T14:50:02.794Z,94573.03
2022-08-09T14:52:32.107Z,94567.69
2022-08-09T14:54:58.863Z,94554.00
2022-08-09T14:57:31.883Z,94566.59
2022-08-09T14:59:58.917Z,94558.56
2022-08-09T15:02:27.819Z,94563.41
2022-08-09T15:04:56.629Z,94554.00
2022-08-09T15:07:25.308Z,94558.56
2022-08-09T15:10:07.318Z,94565.50
2022-08-09T15:12:37.992Z,94551.59
2022-08-09T15:15:08.605Z,94547.03
2022-08-09T15:17:41.572Z,94545.97
2022-08-09T15:20:11.770Z,94546.25
2022-08-09T15:22:46.637Z,94558.56
2022-08-09T15:25:16.200Z,94561.75
2022-08-09T15:28:03.444Z,94548.91
2022-08-09T15:31:00.801Z,94548.66
2022-08-09T15:34:31.183Z,94545.66
2022-08-09T15:36:28.424Z,94544.06
2022-08-09T15:38:56.521Z,94549.44
2022-08-09T15:41:23.249Z,94549.44
2022-08-09T15:43:58.536Z,94562.81
2022-08-09T15:46:33.567Z,94553.19
2022-08-09T15:49:21.066Z,94564.72
2022-08-09T15:52:03.907Z,94554.78
2022-08-09T15:54:44.570Z,94561.22
2022-08-09T15:57:19.176Z,94566.31
2022-08-09T16:00:14.023Z,94567.09
2022-08-09T16:02:43.052Z,94569.00
2022-08-09T16:05:20.270Z,94572.47
2022-08-09T16:07:50.590Z,94568.69
2022-08-09T16:10:38.631Z,94570.88
2022-08-09T16:13:04.799Z,94570.59
2022-08-09T16:16:10.911Z,94568.69
2022-08-09T16:18:32.340Z,94561.75
2022-08-09T16:20:59.366Z,94564.16
2022-08-09T16:23:27.059Z,94559.56
2022-08-09T16:26:01.056Z,94570.28
2022-08-09T16:28:29.505Z,94572.69
2022-08-09T16:30:59.105Z,94564.94
2022-08-09T16:33:26.564Z,94575.66
2022-08-09T16:35:58.617Z,94575.66
2022-08-09T16:38:29.580Z,94577.25
2022-08-09T16:40:56.519Z,94586.38
2022-08-09T16:43:24.438Z,94587.97
2022-08-09T16:45:54.030Z,94591.72
2022-08-09T16:48:41.364Z,94597.88
2022-08-09T16:51:13.789Z,94594.75
2022-08-09T16:54:09.008Z,94588.91
2022-08-09T16:56:31.576Z,94594.28
2022-08-09T16:58:59.161Z,94594.84
2022-08-09T17:01:28.121Z,94595.41
2022-08-09T17:04:00.408Z,94602.94
2022-08-09T17:06:32.154Z,94600.78
2022-08-09T17:09:17.838Z,94606.69
2022-08-09T17:11:51.416Z,94610.16
2022-08-09T17:14:27.305Z,94609.00
2022-08-09T17:16:56.812Z,94625.75
2022-08-09T17:19:27.371Z,94620.72
2022-08-09T17:22:13.569Z,94626.84
2022-08-09T17:24:41.367Z,94639.66
2022-08-09T17:27:15.383Z,94643.25
2022-08-09T17:29:45.605Z,94645.91
2022-08-09T17:32:15.866Z,94646.72
2022-08-09T17:35:01.340Z,94639.78
2022-08-09T17:38:11.125Z,94649.91
2022-08-09T17:40:20.676Z,94646.19
2022-08-09T17:42:55.537Z,94651.03
2022-08-09T17:45:37.517Z,94646.75
2022-08-09T17:48:13.799Z,94640.31
2022-08-09T17:50:48.486Z,94652.63
2022-08-09T17:53:22.753Z,94644.63
2022-08-09T17:55:55.278Z,94655.91
2022-08-09T17:58:27.046Z,94664.50
2022-08-09T18:00:58.362Z,94674.13
2022-08-09T18:03:25.491Z,94681.88
2022-08-09T18:05:53.603Z,94684.59
2022-08-09T18:08:22.056Z,94690.22
2022-08-09T18:11:01.046Z,94707.91
2022-08-09T18:13:40.067Z,94703.41
2022-08-09T18:16:17.181Z,94706.84
2022-08-09T18:18:55.823Z,94705.72
2022-08-09T18:21:23.696Z,94708.34
2022-08-09T18:24:12.060Z,94710.81
2022-08-09T18:26:46.542Z,94711.91
2022-08-09T18:30:41.836Z,94712.16
2022-08-09T18:32:04.984Z,94729.53
2022-08-09T18:34:35.054Z,94731.63
2022-08-09T18:37:03.568Z,94734.03
2022-08-09T18:39:32.693Z,94733.47
2022-08-09T18:42:08.838Z,94730.75
2022-08-09T18:44:35.912Z,94729.63
2022-08-09T18:47:07.381Z,94731.25
2022-08-09T18:49:42.930Z,94731.81
2022-08-09T18:52:13.295Z,94740.91
2022-08-09T18:54:49.780Z,94741.97
2022-08-09T18:57:19.901Z,94739.53
2022-08-09T18:59:58.822Z,94740.88
2022-08-09T19:02:31.623Z,94734.44
2022-08-09T19:05:20.470Z,94737.13
2022-08-09T19:08:04.102Z,94739.78
2022-08-09T19:10:39.308Z,94741.94
2022-08-09T19:13:16.669Z,94738.97
2022-08-09T19:15:53.090Z,94743.56
2022-08-09T19:18:33.018Z,94757.47
2022-08-09T19:21:02.581Z,94747.81
2022-08-09T19:24:37.578Z,94754.25
2022-08-09T19:26:16.108Z,94748.09
2022-08-09T19:28:42.826Z,94751.06
2022-08-09T19:31:16.789Z,94747.88
2022-08-09T19:33:43.686Z,94751.63
2022-08-09T19:36:11.772Z,94760.66
2022-08-09T19:38:40.208Z,94758.50
2022-08-09T19:41:06.903Z,94766.03
2022-08-09T19:44:00.736Z,94756.13
2022-08-09T19:46:34.838Z,94752.09
2022-08-09T19:50:07.566Z,94755.88
2022-08-09T19:51:55.370Z,94751.84
2022-08-09T19:54:25.028Z,94748.09
2022-08-09T19:56:52.041Z,94756.44
2022-08-09T19:59:58.097Z,94756.44
2022-08-09T20:02:18.306Z,94749.47
2022-08-09T20:04:54.892Z,94752.16
2022-08-09T20:07:22.602Z,94752.41
2022-08-09T20:09:49.496Z,94744.13
2022-08-09T20:12:27.071Z,94742.53
2022-08-09T20:15:04.512Z,94746.28
2022-08-09T20:17:48.393Z,94747.06
2022-08-09T20:20:18.272Z,94742.53
2022-08-09T20:22:46.644Z,94742.78
2022-08-09T20:25:13.341Z,94740.91
2022-08-09T20:27:49.565Z,94743.06
2022-08-09T20:30:17.873Z,94741.97
2022-08-09T20:32:45.422Z,94746.28
2022-08-09T20:35:15.838Z,94740.91
2022-08-09T20:38:23.454Z,94743.59
2022-08-09T20:40:30.191Z,94743.06
2022-08-09T20:43:12.132Z,94751.63
2022-08-09T20:45:59.628Z,94751.91
2022-08-09T20:48:31.693Z,94754.59
2022-08-09T20:51:02.979Z,94759.94
2022-08-09T20:53:36.977Z,94764.22
2022-08-09T20:56:20.187Z,94766.91
2022-08-09T20:58:48.966Z,94771.00
2022-08-09T21:01:34.767Z,94776.38
2022-08-09T21:05:48.546Z,94788.19
2022-08-09T21:06:50.628Z,94790.03
2022-08-09T21:09:32.835Z,94784.69
2022-08-09T21:14:34.671Z,94783.09
2022-08-09T21:17:02.545Z,94777.19
2022-08-09T21:20:18.877Z,94783.63
2022-08-09T21:22:47.018Z,94786.31
2022-08-09T21:25:38.530Z,94791.13
2022-08-09T21:28:07.413Z,94793.81
2022-08-09T21:30:40.587Z,94794.09
2022-08-09T21:33:08.071Z,94796.75
2022-08-09T21:35:40.535Z,94793.81
2022-08-09T21:38:18.427Z,94796.47
2022-08-09T21:40:57.877Z,94786.06
2022-08-09T21:43:55.942Z,94790.06
2022-08-09T21:46:11.167Z,94788.44
2022-08-09T21:48:38.766Z,94786.03
2022-08-09T21:51:14.201Z,94776.16
2022-08-09T21:53:49.612Z,94785.47
2022-08-09T21:56:33.890Z,94786.56
2022-08-09T21:59:04.278Z,94782.00
2022-08-09T22:01:59.479Z,94786.00
2022-08-09T22:04:18.675Z,94783.59
2022-08-09T22:06:59.326Z,94774.00
2022-08-09T22:09:28.868Z,94775.59
2022-08-09T22:12:18.019Z,94761.72
2022-08-09T22:14:42.672Z,94761.16
2022-08-09T22:17:11.365Z,94761.97
2022-08-09T22:19:59.629Z,94768.09
2022-08-09T22:22:24.873Z,94757.44
2022-08-09T22:26:04.265Z,94758.75
2022-08-09T22:27:39.209Z,94761.16
2022-08-09T22:30:07.887Z,94761.72
2022-08-09T22:32:34.950Z,94760.91
2022-08-09T22:35:05.838Z,94756.38
2022-08-09T22:37:33.647Z,94763.28
2022-08-09T22:40:09.749Z,94770.22
2022-08-09T22:42:37.861Z,94762.75
2022-08-09T22:48:10.104Z,94757.69
2022-08-09T22:48:13.618Z,94758.75
2022-08-09T22:50:38.890Z,94761.41
2022-08-09T22:53:06.879Z,94757.94
2022-08-09T22:56:06.124Z,94757.38
2022-08-09T22:58:32.486Z,94753.38
2022-08-09T23:01:03.680Z,94754.72
2022-08-09T23:04:04.452Z,94748.56
2022-08-09T23:06:35.461Z,94754.16
2022-08-09T23:09:06.674Z,94756.03
2022-08-09T23:11:33.383Z,94765.66
2022-08-09T23:14:00.026Z,94762.41
2022-08-09T23:16:26.638Z,94769.09
2022-08-09T23:18:53.221Z,94762.16
2022-08-09T23:21:25.978Z,94762.16
2022-08-09T23:24:05.225Z,94758.44
2022-08-09T23:26:33.632Z,94748.81
2022-08-09T23:29:00.272Z,94748.75
2022-08-09T23:31:26.887Z,94754.16
2022-08-09T23:33:53.532Z,94746.16
2022-08-09T23:36:20.130Z,94751.94
2022-08-09T23:38:48.530Z,94752.81
2022-08-09T23:41:28.953Z,94742.69
2022-08-09T23:43:59.870Z,94743.41
2022-08-09T23:46:27.696Z,94749.34
2022-08-09T23:48:54.315Z,94741.56
2022-08-09T23:51:21.147Z,94731.13
2022-08-09T23:53:49.607Z,94735.97
2022-08-09T23:56:39.454Z,94743.16
2022-08-09T23:59:05.731Z,94746.31
